createdAt,value
2023-04-17T00:01:43.993Z,9.00
2023-04-17T00:03:50.697Z,9.00
2023-04-17T00:05:54.157Z,8.90
2023-04-17T00:07:57.189Z,8.90
2023-04-17T00:09:58.922Z,9.00
2023-04-17T00:12:01.067Z,9.00
2023-04-17T00:14:02.688Z,9.00
2023-04-17T00:16:04.384Z,9.00
2023-04-17T00:18:06.109Z,9.00
2023-04-17T00:20:10.578Z,9.00
2023-04-17T00:22:12.434Z,9.00
2023-04-17T00:24:14.331Z,9.00
2023-04-17T00:26:16.651Z,9.00
2023-04-17T00:28:18.496Z,9.00
2023-04-17T00:30:20.233Z,9.00
2023-04-17T00:32:21.970Z,8.90
2023-04-17T00:34:23.577Z,9.00
2023-04-17T00:36:25.395Z,9.00
2023-04-17T00:38:26.988Z,9.00
2023-04-17T00:40:31.236Z,8.90
2023-04-17T00:42:32.871Z,8.90
2023-04-17T00:44:34.595Z,8.90
2023-04-17T00:46:44.347Z,8.90
2023-04-17T00:48:46.211Z,8.90
2023-04-17T00:50:47.817Z,8.90
2023-04-17T00:52:49.703Z,8.90
2023-04-17T00:54:51.372Z,8.90
2023-04-17T00:56:53.800Z,8.90
2023-04-17T00:59:16.491Z,8.90
2023-04-17T01:01:21.059Z,8.90
2023-04-17T01:03:28.551Z,8.90
2023-04-17T01:05:30.275Z,8.90
2023-04-17T01:07:32.190Z,8.80
2023-04-17T01:09:38.297Z,8.80
2023-04-17T01:11:40.075Z,8.80
2023-04-17T01:13:48.773Z,8.80
2023-04-17T01:15:50.498Z,8.80
2023-04-17T01:17:52.143Z,8.80
2023-04-17T01:19:55.459Z,8.80
2023-04-17T01:21:57.618Z,8.80
2023-04-17T01:24:12.108Z,8.80
2023-04-17T01:26:29.737Z,8.80
2023-04-17T01:28:31.558Z,8.80
2023-04-17T01:30:33.183Z,8.80
2023-04-17T01:32:35.358Z,8.80
2023-04-17T01:34:37.675Z,8.80
2023-04-17T01:36:39.450Z,8.80
2023-04-17T01:38:41.209Z,8.80
2023-04-17T01:40:42.841Z,8.70
2023-04-17T01:42:44.520Z,8.70
2023-04-17T01:44:46.281Z,8.70
2023-04-17T01:46:48.871Z,8.70
2023-04-17T01:48:50.700Z,8.60
2023-04-17T01:50:52.329Z,8.60
2023-04-17T01:52:54.006Z,8.60
2023-04-17T01:54:55.964Z,8.60
2023-04-17T01:56:57.808Z,8.60
2023-04-17T01:58:59.665Z,8.60
2023-04-17T02:01:03.521Z,8.60
2023-04-17T02:03:06.112Z,8.60
2023-04-17T02:05:07.879Z,8.60
2023-04-17T02:07:09.540Z,8.60
2023-04-17T02:09:11.776Z,8.60
2023-04-17T02:11:15.187Z,8.60
2023-04-17T02:13:16.800Z,8.60
2023-04-17T02:15:18.392Z,8.60
2023-04-17T02:17:20.082Z,8.60
2023-04-17T02:19:22.792Z,8.60
2023-04-17T02:21:29.754Z,8.60
2023-04-17T02:23:31.415Z,8.50
2023-04-17T02:25:33.137Z,8.50
2023-04-17T02:27:34.730Z,8.50
2023-04-17T02:29:36.567Z,8.50
2023-04-17T02:31:39.576Z,8.50
2023-04-17T02:33:41.269Z,8.60
2023-04-17T02:35:43.001Z,8.50
2023-04-17T02:37:44.572Z,8.50
2023-04-17T02:39:46.244Z,8.50
2023-04-17T02:41:47.876Z,8.50
2023-04-17T02:43:49.798Z,8.60
2023-04-17T02:45:51.522Z,8.60
2023-04-17T02:47:53.239Z,8.60
2023-04-17T02:49:56.106Z,8.60
2023-04-17T02:51:58.023Z,8.60
2023-04-17T02:53:59.648Z,8.60
2023-04-17T02:56:01.264Z,8.60
2023-04-17T02:58:03.012Z,8.60
2023-04-17T03:00:14.778Z,8.60
2023-04-17T03:02:16.602Z,8.60
2023-04-17T03:04:18.404Z,8.60
2023-04-17T03:06:20.110Z,8.50
2023-04-17T03:08:22.058Z,8.50
2023-04-17T03:10:23.764Z,8.60
2023-04-17T03:12:26.403Z,8.60
2023-04-17T03:14:28.050Z,8.60
2023-04-17T03:16:29.796Z,8.60
2023-04-17T03:18:31.599Z,8.60
2023-04-17T03:20:33.230Z,8.60
2023-04-17T03:22:34.866Z,8.60
2023-04-17T03:24:36.474Z,8.60
2023-04-17T03:26:38.234Z,8.50
2023-04-17T03:28:39.858Z,8.50
2023-04-17T03:30:41.499Z,8.60
2023-04-17T03:32:43.274Z,8.60
2023-04-17T03:34:44.992Z,8.60
2023-04-17T03:36:46.746Z,8.60
2023-04-17T03:38:48.444Z,8.60
2023-04-17T03:40:50.528Z,8.60
2023-04-17T03:42:52.179Z,8.60
2023-04-17T03:44:53.762Z,8.60
2023-04-17T03:46:55.454Z,8.60
2023-04-17T03:48:57.295Z,8.60
2023-04-17T03:50:58.990Z,8.60
2023-04-17T03:53:00.670Z,8.60
2023-04-17T03:55:03.437Z,8.60
2023-04-17T03:57:05.302Z,8.50
2023-04-17T03:59:07.080Z,8.60
2023-04-17T04:01:10.723Z,8.60
2023-04-17T04:03:12.558Z,8.60
2023-04-17T04:05:14.917Z,8.70
2023-04-17T04:07:16.667Z,8.60
2023-04-17T04:09:18.398Z,8.60
2023-04-17T04:11:20.006Z,8.70
2023-04-17T04:13:21.643Z,8.70
2023-04-17T04:15:23.276Z,8.60
2023-04-17T04:17:25.096Z,8.60
2023-04-17T04:19:26.792Z,8.70
2023-04-17T04:21:28.543Z,8.60
2023-04-17T04:23:30.656Z,8.60
2023-04-17T04:25:34.109Z,8.60
2023-04-17T04:27:35.738Z,8.70
2023-04-17T04:29:37.846Z,8.70
2023-04-17T04:31:39.651Z,8.70
2023-04-17T04:33:41.354Z,8.60
2023-04-17T04:35:47.602Z,8.60
2023-04-17T04:37:49.213Z,8.60
2023-04-17T04:39:54.059Z,8.60
2023-04-17T04:41:56.031Z,8.60
2023-04-17T04:43:57.737Z,8.60
2023-04-17T04:45:59.376Z,8.60
2023-04-17T04:48:01.148Z,8.60
2023-04-17T04:50:02.830Z,8.70
2023-04-17T04:52:04.589Z,8.60
2023-04-17T04:54:06.298Z,8.60
2023-04-17T04:56:07.931Z,8.60
2023-04-17T04:58:09.645Z,8.60
2023-04-17T05:00:13.208Z,8.70
2023-04-17T05:02:15.186Z,8.70
2023-04-17T05:04:17.102Z,8.70
2023-04-17T05:06:19.608Z,8.70
2023-04-17T05:08:21.373Z,8.70
2023-04-17T05:10:23.028Z,8.70
2023-04-17T05:12:24.765Z,8.70
2023-04-17T05:14:26.623Z,8.70
2023-04-17T05:16:28.385Z,8.70
2023-04-17T05:18:30.192Z,8.70
2023-04-17T05:20:32.052Z,8.80
2023-04-17T05:22:35.096Z,8.70
2023-04-17T05:24:36.839Z,8.70
2023-04-17T05:26:38.541Z,8.70
2023-04-17T05:28:40.982Z,8.70
2023-04-17T05:30:44.330Z,8.80
2023-04-17T05:32:46.295Z,8.80
2023-04-17T05:34:48.010Z,8.70
2023-04-17T05:36:49.834Z,8.70
2023-04-17T05:38:51.694Z,8.60
2023-04-17T05:40:53.650Z,8.70
2023-04-17T05:42:55.448Z,8.80
2023-04-17T05:44:57.108Z,8.80
2023-04-17T05:47:00.230Z,8.80
2023-04-17T05:49:01.870Z,8.80
2023-04-17T05:51:03.572Z,8.80
2023-04-17T05:53:05.287Z,8.90
2023-04-17T05:55:07.425Z,8.90
2023-04-17T05:57:09.057Z,8.90
2023-04-17T05:59:11.110Z,8.90
2023-04-17T06:01:16.935Z,8.80
2023-04-17T06:03:19.100Z,8.90
2023-04-17T06:05:21.604Z,9.00
2023-04-17T06:07:23.647Z,9.00
2023-04-17T06:09:25.872Z,9.00
2023-04-17T06:11:27.657Z,9.00
2023-04-17T06:13:29.404Z,9.00
2023-04-17T06:15:31.429Z,9.00
2023-04-17T06:17:33.090Z,8.90
2023-04-17T06:19:34.850Z,8.90
2023-04-17T06:21:36.466Z,9.00
2023-04-17T06:23:38.069Z,8.90
2023-04-17T06:25:39.767Z,9.00
2023-04-17T06:27:41.531Z,9.00
2023-04-17T06:29:43.276Z,8.90
2023-04-17T06:31:44.902Z,9.00
2023-04-17T06:33:47.891Z,9.10
2023-04-17T06:35:49.515Z,9.00
2023-04-17T06:37:51.206Z,9.10
2023-04-17T06:39:52.870Z,9.10
2023-04-17T06:41:56.123Z,9.00
2023-04-17T06:43:57.795Z,9.00
2023-04-17T06:45:59.497Z,9.00
2023-04-17T06:48:01.249Z,9.10
2023-04-17T06:50:02.981Z,9.10
2023-04-17T06:52:04.773Z,9.10
2023-04-17T06:54:06.547Z,9.10
2023-04-17T06:56:08.263Z,9.00
2023-04-17T06:58:09.962Z,9.10
2023-04-17T07:00:12.189Z,9.10
2023-04-17T07:02:14.056Z,9.10
2023-04-17T07:04:17.858Z,9.10
2023-04-17T07:06:19.602Z,9.20
2023-04-17T07:08:22.391Z,9.20
2023-04-17T07:10:24.223Z,9.10
2023-04-17T07:12:26.855Z,9.20
2023-04-17T07:14:28.583Z,9.20
2023-04-17T07:16:30.361Z,9.20
2023-04-17T07:18:32.016Z,9.20
2023-04-17T07:20:33.725Z,9.10
2023-04-17T07:22:35.465Z,9.10
2023-04-17T07:24:37.153Z,9.10
2023-04-17T07:26:40.305Z,9.20
2023-04-17T07:28:42.024Z,9.20
2023-04-17T07:30:43.779Z,9.20
2023-04-17T07:32:45.577Z,9.30
2023-04-17T07:34:48.538Z,9.30
2023-04-17T07:36:51.853Z,9.40
2023-04-17T07:38:53.456Z,9.40
2023-04-17T07:40:55.347Z,9.30
2023-04-17T07:42:57.500Z,9.30
2023-04-17T07:44:59.136Z,9.40
2023-04-17T07:47:01.166Z,9.50
2023-04-17T07:49:02.978Z,9.50
2023-04-17T07:51:04.666Z,9.30
2023-04-17T07:53:06.939Z,9.30
2023-04-17T07:55:08.798Z,9.40
2023-04-17T07:57:11.180Z,9.50
2023-04-17T07:59:13.420Z,9.60
2023-04-17T08:01:15.330Z,9.50
2023-04-17T08:03:17.355Z,9.50
2023-04-17T08:05:19.549Z,9.60
2023-04-17T08:07:21.256Z,9.60
2023-04-17T08:09:22.956Z,9.50
2023-04-17T08:11:24.615Z,9.50
2023-04-17T08:13:26.297Z,9.50
2023-04-17T08:15:27.986Z,9.60
2023-04-17T08:17:30.252Z,9.60
2023-04-17T08:19:31.926Z,9.70
2023-04-17T08:21:33.618Z,9.80
2023-04-17T08:23:35.417Z,9.80
2023-04-17T08:25:37.191Z,9.70
2023-04-17T08:27:40.412Z,9.70
2023-04-17T08:29:44.846Z,9.70
2023-04-17T08:31:46.506Z,9.70
2023-04-17T08:33:48.149Z,9.70
2023-04-17T08:35:49.827Z,9.80
2023-04-17T08:37:51.468Z,9.80
2023-04-17T08:39:53.779Z,9.80
2023-04-17T08:42:02.730Z,9.80
2023-04-17T08:44:04.465Z,9.80
2023-04-17T08:46:06.619Z,9.80
2023-04-17T08:48:08.526Z,9.80
2023-04-17T08:50:11.474Z,9.90
2023-04-17T08:52:14.401Z,9.90
2023-04-17T08:54:16.171Z,9.90
2023-04-17T08:56:17.952Z,9.90
2023-04-17T08:58:21.932Z,9.90
2023-04-17T09:00:24.293Z,10.00
2023-04-17T09:02:27.719Z,10.00
2023-04-17T09:04:42.937Z,10.10
2023-04-17T09:06:54.381Z,10.10
2023-04-17T09:09:00.719Z,10.00
2023-04-17T09:11:02.646Z,10.00
2023-04-17T09:13:04.350Z,10.10
2023-04-17T09:15:15.843Z,10.00
2023-04-17T09:17:18.412Z,10.10
2023-04-17T09:19:20.075Z,10.10
2023-04-17T09:21:27.652Z,10.30
2023-04-17T09:23:30.233Z,10.10
2023-04-17T09:25:32.141Z,10.30
2023-04-17T09:27:33.833Z,10.40
2023-04-17T09:29:54.615Z,10.50
2023-04-17T09:31:56.373Z,10.50
2023-04-17T09:33:58.120Z,10.50
2023-04-17T09:36:21.478Z,10.40
2023-04-17T09:38:37.176Z,10.50
2023-04-17T09:40:40.011Z,10.40
2023-04-17T09:42:59.758Z,10.50
2023-04-17T09:45:20.364Z,10.50
2023-04-17T09:47:25.185Z,10.60
2023-04-17T09:49:53.291Z,10.60
2023-04-17T09:51:55.119Z,10.80
2023-04-17T09:53:58.931Z,11.00
2023-04-17T09:56:01.552Z,10.90
2023-04-17T09:58:04.234Z,10.80
2023-04-17T10:00:10.542Z,10.90
2023-04-17T10:02:13.277Z,10.80
2023-04-17T10:04:15.351Z,10.80
2023-04-17T10:06:17.796Z,10.80
2023-04-17T10:08:19.504Z,10.80
2023-04-17T10:10:22.543Z,10.70
2023-04-17T10:12:24.168Z,10.60
2023-04-17T10:14:28.055Z,10.60
2023-04-17T10:16:36.565Z,10.70
2023-04-17T10:18:38.391Z,10.70
2023-04-17T10:20:44.662Z,10.70
2023-04-17T10:22:54.247Z,10.70
2023-04-17T10:25:11.257Z,10.50
2023-04-17T10:27:28.334Z,10.60
2023-04-17T10:29:48.596Z,10.60
2023-04-17T10:32:09.007Z,10.60
2023-04-17T10:34:30.723Z,10.60
2023-04-17T10:36:38.272Z,10.60
2023-04-17T10:38:39.867Z,10.50
2023-04-17T10:40:42.877Z,10.50
2023-04-17T10:43:01.199Z,10.40
2023-04-17T10:45:05.144Z,10.40
2023-04-17T10:49:17.027Z,10.40
2023-04-17T10:51:21.790Z,10.30
2023-04-17T10:53:39.701Z,10.40
2023-04-17T10:55:48.664Z,10.50
2023-04-17T10:57:58.714Z,10.50
2023-04-17T11:00:13.970Z,10.50
2023-04-17T11:02:16.019Z,10.60
2023-04-17T11:04:28.324Z,10.80
2023-04-17T11:06:31.353Z,10.90
2023-04-17T11:08:33.118Z,11.00
2023-04-17T11:10:36.302Z,10.90
2023-04-17T11:12:39.310Z,11.00
2023-04-17T11:14:43.110Z,11.10
2023-04-17T11:16:46.221Z,11.00
2023-04-17T11:18:48.981Z,11.20
2023-04-17T11:20:52.172Z,11.10
2023-04-17T11:22:53.977Z,11.00
2023-04-17T11:24:55.667Z,11.10
2023-04-17T11:26:59.642Z,11.20
2023-04-17T11:29:01.914Z,11.30
2023-04-17T11:31:03.735Z,11.40
2023-04-17T11:33:06.122Z,11.50
2023-04-17T11:35:09.040Z,11.60
2023-04-17T11:37:13.283Z,11.70
2023-04-17T11:39:15.749Z,11.70
2023-04-17T11:41:17.444Z,11.90
2023-04-17T11:43:20.048Z,12.00
2023-04-17T11:45:21.815Z,12.10
2023-04-17T11:47:23.611Z,12.30
2023-04-17T11:49:26.298Z,12.40
2023-04-17T11:51:28.122Z,12.50
2023-04-17T11:53:30.573Z,12.50
2023-04-17T11:55:35.020Z,12.70
2023-04-17T11:57:45.813Z,13.00
2023-04-17T11:59:47.436Z,12.80
2023-04-17T12:01:52.717Z,13.00
2023-04-17T12:03:58.253Z,13.20
2023-04-17T12:06:04.534Z,13.50
2023-04-17T12:08:07.332Z,13.40
2023-04-17T12:10:09.326Z,13.80
2023-04-17T12:12:11.014Z,14.20
2023-04-17T12:14:13.003Z,14.10
2023-04-17T12:16:14.885Z,13.60
2023-04-17T12:18:16.936Z,13.80
2023-04-17T12:20:18.636Z,13.70
2023-04-17T12:22:20.329Z,12.80
2023-04-17T12:24:24.256Z,12.40
2023-04-17T12:26:26.114Z,12.10
2023-04-17T12:28:27.935Z,12.00
2023-04-17T12:30:29.605Z,11.70
2023-04-17T12:32:32.337Z,11.50
2023-04-17T12:34:34.051Z,11.50
2023-04-17T12:36:36.044Z,11.30
2023-04-17T12:38:37.757Z,11.20
2023-04-17T12:40:43.086Z,11.30
2023-04-17T12:42:49.316Z,11.20
2023-04-17T12:44:51.536Z,11.20
2023-04-17T12:46:53.275Z,11.10
2023-04-17T12:48:58.454Z,11.20
2023-04-17T12:51:00.191Z,11.20
2023-04-17T12:53:01.861Z,11.10
2023-04-17T12:55:04.229Z,11.10
2023-04-17T12:57:05.905Z,11.20
2023-04-17T12:59:07.875Z,11.20
2023-04-17T13:01:09.730Z,11.20
2023-04-17T13:03:12.085Z,11.20
2023-04-17T13:05:14.103Z,11.20
2023-04-17T13:07:15.854Z,11.20
2023-04-17T13:09:18.074Z,11.20
2023-04-17T13:11:19.817Z,11.30
2023-04-17T13:13:21.650Z,11.50
2023-04-17T13:15:23.397Z,11.70
2023-04-17T13:17:25.265Z,11.80
2023-04-17T13:19:27.006Z,12.00
2023-04-17T13:21:28.687Z,12.10
2023-04-17T13:23:30.415Z,12.30
2023-04-17T13:25:32.359Z,12.40
2023-04-17T13:27:34.074Z,12.40
2023-04-17T13:29:36.202Z,12.30
2023-04-17T13:31:37.929Z,12.50
2023-04-17T13:33:40.406Z,12.90
2023-04-17T13:35:42.189Z,13.20
2023-04-17T13:37:43.867Z,12.90
2023-04-17T13:39:45.550Z,13.00
2023-04-17T13:41:47.686Z,13.00
2023-04-17T13:43:49.332Z,13.10
2023-04-17T13:45:52.755Z,13.00
2023-04-17T13:47:55.984Z,13.00
2023-04-17T13:49:57.730Z,12.90
2023-04-17T13:51:59.384Z,12.70
2023-04-17T13:54:01.060Z,12.50
2023-04-17T13:56:03.185Z,12.50
2023-04-17T13:58:04.765Z,12.30
2023-04-17T14:00:07.240Z,12.30
2023-04-17T14:02:09.152Z,12.10
2023-04-17T14:04:11.246Z,12.00
2023-04-17T14:06:13.395Z,12.00
2023-04-17T14:08:15.327Z,11.80
2023-04-17T14:10:17.038Z,11.70
2023-04-17T14:12:20.886Z,11.60
2023-04-17T14:14:22.747Z,11.50
2023-04-17T14:16:24.670Z,11.40
2023-04-17T14:18:26.505Z,11.30
2023-04-17T14:20:28.354Z,11.20
2023-04-17T14:22:29.960Z,11.00
2023-04-17T14:24:31.650Z,11.10
2023-04-17T14:26:33.345Z,11.10
2023-04-17T14:28:34.981Z,11.00
2023-04-17T14:30:36.666Z,11.00
2023-04-17T14:32:38.647Z,11.00
2023-04-17T14:34:40.374Z,11.10
2023-04-17T14:36:43.426Z,11.10
2023-04-17T14:38:51.030Z,11.20
2023-04-17T14:40:52.916Z,11.30
2023-04-17T14:42:55.004Z,11.40
2023-04-17T14:44:56.839Z,11.50
2023-04-17T14:46:58.602Z,11.50
2023-04-17T14:49:00.241Z,11.50
2023-04-17T14:51:02.160Z,11.60
2023-04-17T14:53:04.678Z,11.60
2023-04-17T14:55:06.813Z,11.60
2023-04-17T14:57:08.657Z,11.60
2023-04-17T14:59:11.105Z,11.70
2023-04-17T15:01:12.965Z,11.70
2023-04-17T15:03:14.825Z,11.70
2023-04-17T15:05:18.910Z,11.70
2023-04-17T15:07:20.709Z,11.80
2023-04-17T15:09:22.381Z,11.90
2023-04-17T15:11:24.630Z,12.00
2023-04-17T15:13:26.344Z,12.10
2023-04-17T15:15:28.547Z,12.20
2023-04-17T15:17:30.203Z,12.10
2023-04-17T15:19:31.931Z,12.10
2023-04-17T15:21:33.613Z,12.20
2023-04-17T15:23:35.508Z,12.20
2023-04-17T15:25:37.216Z,12.30
2023-04-17T15:27:38.850Z,12.20
2023-04-17T15:29:40.620Z,12.20
2023-04-17T15:31:42.392Z,12.10
2023-04-17T15:33:45.614Z,12.10
2023-04-17T15:35:47.441Z,12.10
2023-04-17T15:37:49.149Z,12.00
2023-04-17T15:39:51.055Z,12.00
2023-04-17T15:41:53.096Z,11.90
2023-04-17T15:43:54.782Z,11.90
2023-04-17T15:45:56.788Z,11.90
2023-04-17T15:47:58.619Z,11.80
2023-04-17T15:50:00.348Z,11.90
2023-04-17T15:52:02.058Z,11.90
2023-04-17T15:54:04.151Z,11.90
2023-04-17T15:56:07.068Z,11.90
2023-04-17T15:58:08.753Z,11.90
2023-04-17T16:00:10.897Z,11.90
2023-04-17T16:02:15.710Z,11.90
2023-04-17T16:04:19.544Z,11.90
2023-04-17T16:06:21.495Z,11.90
2023-04-17T16:08:23.237Z,11.90
2023-04-17T16:10:25.107Z,11.80
2023-04-17T16:12:28.078Z,11.70
2023-04-17T16:14:31.265Z,11.70
2023-04-17T16:16:32.988Z,11.70
2023-04-17T16:18:34.796Z,11.70
2023-04-17T16:20:36.514Z,11.60
2023-04-17T16:22:38.241Z,11.60
2023-04-17T16:24:39.938Z,11.60
2023-04-17T16:26:42.690Z,11.60
2023-04-17T16:28:45.790Z,11.60
2023-04-17T16:30:50.341Z,11.50
2023-04-17T16:32:52.025Z,11.50
2023-04-17T16:34:53.866Z,11.50
2023-04-17T16:36:55.650Z,11.40
2023-04-17T16:38:57.329Z,11.40
2023-04-17T16:41:01.766Z,11.40
2023-04-17T16:43:03.870Z,11.40
2023-04-17T16:45:06.466Z,11.40
2023-04-17T16:49:13.980Z,11.30
2023-04-17T16:51:15.824Z,11.30
2023-04-17T16:53:18.063Z,11.20
2023-04-17T16:55:19.729Z,11.20
2023-04-17T16:57:21.557Z,11.20
2023-04-17T16:59:23.250Z,11.20
2023-04-17T17:01:25.029Z,11.20
2023-04-17T17:03:26.862Z,11.20
2023-04-17T17:05:28.602Z,11.20
2023-04-17T17:07:30.209Z,11.20
2023-04-17T17:09:31.870Z,11.20
2023-04-17T17:11:33.579Z,11.20
2023-04-17T17:13:35.261Z,11.10
2023-04-17T17:15:36.977Z,11.10
2023-04-17T17:17:38.715Z,11.10
2023-04-17T17:19:40.568Z,11.10
2023-04-17T17:21:42.241Z,11.10
2023-04-17T17:23:43.969Z,11.00
2023-04-17T17:25:45.634Z,11.00
2023-04-17T17:27:47.371Z,11.00
2023-04-17T17:29:49.006Z,11.00
2023-04-17T17:31:50.751Z,11.00
2023-04-17T17:33:54.502Z,10.90
2023-04-17T17:35:56.462Z,10.90
2023-04-17T17:37:58.173Z,10.80
2023-04-17T17:40:00.016Z,10.80
2023-04-17T17:42:05.193Z,10.70
2023-04-17T17:44:06.888Z,10.70
2023-04-17T17:46:08.505Z,10.70
2023-04-17T17:48:10.445Z,10.70
2023-04-17T17:50:12.141Z,10.60
2023-04-17T17:52:13.946Z,10.60
2023-04-17T17:54:15.722Z,10.60
2023-04-17T17:56:17.481Z,10.60
2023-04-17T17:58:19.177Z,10.50
2023-04-17T18:00:20.933Z,10.50
2023-04-17T18:02:22.829Z,10.60
2023-04-17T18:04:24.815Z,10.50
2023-04-17T18:06:27.769Z,10.50
2023-04-17T18:08:29.476Z,10.40
2023-04-17T18:10:31.260Z,10.40
2023-04-17T18:12:33.011Z,10.40
2023-04-17T18:14:34.799Z,10.40
2023-04-17T18:16:37.494Z,10.30
2023-04-17T18:18:39.536Z,10.30
2023-04-17T18:20:41.261Z,10.20
2023-04-17T18:22:42.917Z,10.20
2023-04-17T18:24:45.062Z,10.10
2023-04-17T18:26:47.525Z,10.10
2023-04-17T18:28:49.513Z,10.10
2023-04-17T18:30:51.550Z,10.10
2023-04-17T18:32:53.287Z,10.10
2023-04-17T18:34:54.988Z,10.10
2023-04-17T18:36:59.838Z,10.10
2023-04-17T18:39:01.514Z,10.10
2023-04-17T18:41:03.775Z,9.90
2023-04-17T18:43:06.151Z,9.90
2023-04-17T18:45:08.107Z,9.90
2023-04-17T18:47:09.819Z,9.80
2023-04-17T18:49:11.525Z,9.80
2023-04-17T18:51:14.680Z,9.80
2023-04-17T18:53:16.395Z,9.70
2023-04-17T18:55:18.085Z,9.70
2023-04-17T18:57:19.722Z,9.70
2023-04-17T18:59:21.556Z,9.70
2023-04-17T19:01:23.280Z,9.70
2023-04-17T19:03:25.059Z,9.70
2023-04-17T19:05:27.161Z,9.70
2023-04-17T19:07:29.403Z,9.70
2023-04-17T19:09:31.027Z,9.60
2023-04-17T19:11:33.176Z,9.60
2023-04-17T19:13:34.896Z,9.60
2023-04-17T19:15:36.610Z,9.60
2023-04-17T19:17:38.708Z,9.60
2023-04-17T19:19:40.508Z,9.60
2023-04-17T19:21:42.239Z,9.60
2023-04-17T19:23:44.323Z,9.60
2023-04-17T19:25:50.148Z,9.50
2023-04-17T19:27:51.740Z,9.60
2023-04-17T19:29:53.398Z,9.50
2023-04-17T19:31:55.030Z,9.60
2023-04-17T19:33:57.377Z,9.60
2023-04-17T19:35:59.459Z,9.60
2023-04-17T19:38:01.186Z,9.70
2023-04-17T19:40:08.601Z,9.80
2023-04-17T19:42:16.156Z,9.70
2023-04-17T19:44:18.052Z,9.70
2023-04-17T19:46:20.837Z,9.70
2023-04-17T19:48:22.452Z,9.80
2023-04-17T19:50:26.373Z,9.80
2023-04-17T19:52:28.074Z,9.80
2023-04-17T19:54:29.749Z,9.80
2023-04-17T19:56:31.412Z,9.80
2023-04-17T19:58:33.224Z,9.70
2023-04-17T20:00:34.855Z,9.70
2023-04-17T20:02:36.643Z,9.70
2023-04-17T20:04:38.368Z,9.60
2023-04-17T20:06:40.849Z,9.60
2023-04-17T20:08:42.509Z,9.60
2023-04-17T20:10:44.172Z,9.60
2023-04-17T20:12:45.822Z,9.50
2023-04-17T20:14:48.044Z,9.50
2023-04-17T20:16:51.307Z,9.50
2023-04-17T20:18:53.146Z,9.50
2023-04-17T20:20:54.806Z,9.50
2023-04-17T20:22:56.552Z,9.40
2023-04-17T20:24:58.270Z,9.30
2023-04-17T20:26:59.870Z,9.20
2023-04-17T20:29:01.571Z,9.30
2023-04-17T20:31:03.519Z,9.30
2023-04-17T20:33:05.497Z,9.30
2023-04-17T20:35:07.431Z,9.30
2023-04-17T20:37:09.556Z,9.30
2023-04-17T20:39:12.632Z,9.30
2023-04-17T20:41:14.491Z,9.30
2023-04-17T20:43:16.834Z,9.30
2023-04-17T20:45:18.493Z,9.20
2023-04-17T20:47:20.136Z,9.30
2023-04-17T20:49:21.932Z,9.30
2023-04-17T20:51:27.413Z,9.40
2023-04-17T20:53:29.123Z,9.30
2023-04-17T20:55:30.802Z,9.30
2023-04-17T20:57:32.520Z,9.30
2023-04-17T20:59:34.332Z,9.30
2023-04-17T21:01:36.099Z,9.30
2023-04-17T21:03:37.817Z,9.30
2023-04-17T21:05:39.435Z,9.30
2023-04-17T21:07:41.056Z,9.30
2023-04-17T21:09:42.705Z,9.20
2023-04-17T21:11:44.613Z,9.20
2023-04-17T21:13:46.320Z,9.30
2023-04-17T21:15:47.941Z,9.20
2023-04-17T21:17:49.770Z,9.10
2023-04-17T21:19:51.575Z,9.10
2023-04-17T21:21:57.064Z,9.10
2023-04-17T21:23:58.709Z,9.10
2023-04-17T21:26:00.344Z,9.00
2023-04-17T21:28:02.058Z,9.00
2023-04-17T21:30:04.383Z,9.10
2023-04-17T21:32:06.166Z,9.10
2023-04-17T21:34:08.138Z,9.10
2023-04-17T21:36:09.927Z,9.10
2023-04-17T21:38:12.516Z,9.00
2023-04-17T21:40:14.241Z,9.00
2023-04-17T21:42:17.176Z,9.00
2023-04-17T21:44:18.911Z,9.00
2023-04-17T21:46:20.558Z,9.00
2023-04-17T21:48:22.395Z,9.00
2023-04-17T21:50:23.960Z,8.90
2023-04-17T21:52:26.044Z,9.00
2023-04-17T21:54:27.701Z,8.90
2023-04-17T21:56:29.373Z,8.90
2023-04-17T21:58:30.981Z,8.90
2023-04-17T22:00:32.645Z,8.90
2023-04-17T22:02:34.364Z,8.90
2023-04-17T22:04:36.429Z,8.90
2023-04-17T22:06:38.092Z,8.90
2023-04-17T22:08:39.818Z,8.90
2023-04-17T22:10:41.414Z,8.90
2023-04-17T22:12:43.183Z,8.90
2023-04-17T22:14:44.863Z,8.80
2023-04-17T22:16:46.496Z,8.80
2023-04-17T22:18:48.259Z,8.80
2023-04-17T22:20:49.898Z,8.80
2023-04-17T22:22:51.716Z,8.80
2023-04-17T22:24:53.317Z,8.80
2023-04-17T22:26:55.003Z,8.80
2023-04-17T22:28:56.712Z,8.80
2023-04-17T22:30:58.837Z,8.80
2023-04-17T22:33:00.685Z,8.80
2023-04-17T22:35:02.629Z,8.80
2023-04-17T22:37:04.257Z,8.80
2023-04-17T22:39:05.968Z,8.80
2023-04-17T22:41:07.620Z,8.80
2023-04-17T22:43:09.366Z,8.90
2023-04-17T22:45:11.108Z,8.80
2023-04-17T22:47:12.733Z,8.80
2023-04-17T22:49:14.570Z,8.80
2023-04-17T22:51:16.167Z,8.80
2023-04-17T22:53:17.914Z,8.90
2023-04-17T22:55:19.571Z,8.90
2023-04-17T22:57:21.203Z,8.80
2023-04-17T22:59:22.878Z,8.90
2023-04-17T23:01:24.708Z,8.90
2023-04-17T23:03:26.740Z,8.80
2023-04-17T23:05:28.571Z,8.80
2023-04-17T23:07:30.396Z,8.80
2023-04-17T23:09:32.163Z,8.80
2023-04-17T23:11:34.058Z,8.80
2023-04-17T23:13:35.787Z,8.80
2023-04-17T23:15:37.572Z,8.90
2023-04-17T23:17:39.291Z,8.90
2023-04-17T23:19:40.936Z,8.90
2023-04-17T23:21:42.755Z,8.90
2023-04-17T23:23:44.461Z,8.90
2023-04-17T23:25:50.733Z,8.90
2023-04-17T23:27:52.376Z,8.80
2023-04-17T23:29:54.067Z,8.90
2023-04-17T23:31:55.829Z,8.90
2023-04-17T23:33:57.500Z,8.90
2023-04-17T23:35:59.176Z,8.90
2023-04-17T23:38:00.904Z,8.90
2023-04-17T23:40:02.550Z,8.80
2023-04-17T23:42:07.291Z,8.80
2023-04-17T23:44:09.752Z,8.80
2023-04-17T23:46:11.454Z,8.80
2023-04-17T23:48:13.124Z,8.80
2023-04-17T23:50:14.792Z,8.90
2023-04-17T23:52:16.498Z,8.80
2023-04-17T23:54:18.204Z,8.80
2023-04-17T23:56:22.505Z,8.90
2023-04-17T23:58:24.170Z,8.80
